sensor_id;sensor_type;location;lat;lon;timestamp;pressure;altitude;pressure_sealevel;temperature;humidity
6134;BME280;3098;42.678;23.364;2022-07-06T00:00:28;94837.63;;;18.69;100.00
6134;BME280;3098;42.678;23.364;2022-07-06T00:02:55;94856.00;;;18.90;100.00
6134;BME280;3098;42.678;23.364;2022-07-06T00:05:22;94865.88;;;19.09;100.00
6134;BME280;3098;42.678;23.364;2022-07-06T00:07:50;94846.13;;;18.98;100.00
6134;BME280;3098;42.678;23.364;2022-07-06T00:10:17;94866.72;;;19.13;100.00
6134;BME280;3098;42.678;23.364;2022-07-06T00:12:46;94872.84;;;19.13;100.00
6134;BME280;3098;42.678;23.364;2022-07-06T00:15:13;94868.91;;;19.07;100.00
6134;BME280;3098;42.678;23.364;2022-07-06T00:17:41;94878.53;;;19.08;100.00
6134;BME280;3098;42.678;23.364;2022-07-06T00:20:09;94832.19;;;18.66;100.00
6134;BME280;3098;42.678;23.364;2022-07-06T00:22:36;94861.63;;;18.81;100.00
6134;BME280;3098;42.678;23.364;2022-07-06T00:25:04;94864.31;;;18.81;100.00
6134;BME280;3098;42.678;23.364;2022-07-06T00:27:32;94881.66;;;18.87;100.00
6134;BME280;3098;42.678;23.364;2022-07-06T00:30:00;94884.66;;;18.82;100.00
6134;BME280;3098;42.678;23.364;2022-07-06T00:32:28;94898.16;;;18.86;100.00
6134;BME280;3098;42.678;23.364;2022-07-06T00:34:58;94892.59;;;18.98;100.00
6134;BME280;3098;42.678;23.364;2022-07-06T00:37:26;94866.94;;;18.78;100.00
6134;BME280;3098;42.678;23.364;2022-07-06T00:39:53;94890.97;;;18.93;100.00
6134;BME280;3098;42.678;23.364;2022-07-06T00:42:21;94901.41;;;19.21;100.00
6134;BME280;3098;42.678;23.364;2022-07-06T00:44:48;94903.66;;;19.19;100.00
6134;BME280;3098;42.678;23.364;2022-07-06T00:47:16;94891.09;;;19.27;100.00
6134;BME280;3098;42.678;23.364;2022-07-06T00:49:44;94895.84;;;19.37;100.00
6134;BME280;3098;42.678;23.364;2022-07-06T00:52:29;94902.31;;;19.59;100.00
6134;BME280;3098;42.678;23.364;2022-07-06T00:54:56;94895.66;;;19.79;100.00
6134;BME280;3098;42.678;23.364;2022-07-06T00:57:23;94888.19;;;19.65;100.00
6134;BME280;3098;42.678;23.364;2022-07-06T00:59:50;94888.13;;;19.58;100.00
6134;BME280;3098;42.678;23.364;2022-07-06T01:02:19;94873.72;;;19.77;100.00
6134;BME280;3098;42.678;23.364;2022-07-06T01:04:48;94831.25;;;19.33;100.00
6134;BME280;3098;42.678;23.364;2022-07-06T01:07:14;94857.19;;;19.45;100.00
6134;BME280;3098;42.678;23.364;2022-07-06T01:09:42;94841.59;;;19.31;100.00
6134;BME280;3098;42.678;23.364;2022-07-06T01:12:09;94836.50;;;19.23;100.00
6134;BME280;3098;42.678;23.364;2022-07-06T01:14:37;94843.00;;;19.22;100.00
6134;BME280;3098;42.678;23.364;2022-07-06T01:17:04;94848.44;;;19.25;100.00
6134;BME280;3098;42.678;23.364;2022-07-06T01:19:33;94835.06;;;19.03;100.00
6134;BME280;3098;42.678;23.364;2022-07-06T01:22:02;94826.22;;;19.02;100.00
6134;BME280;3098;42.678;23.364;2022-07-06T01:24:29;94848.03;;;19.23;100.00
6134;BME280;3098;42.678;23.364;2022-07-06T01:26:56;94840.63;;;19.17;100.00
6134;BME280;3098;42.678;23.364;2022-07-06T01:29:24;94852.63;;;19.23;100.00
6134;BME280;3098;42.678;23.364;2022-07-06T01:31:51;94850.00;;;19.26;100.00
6134;BME280;3098;42.678;23.364;2022-07-06T01:34:18;94849.28;;;19.33;100.00
6134;BME280;3098;42.678;23.364;2022-07-06T01:36:46;94808.53;;;19.01;100.00
6134;BME280;3098;42.678;23.364;2022-07-06T01:39:15;94842.44;;;19.09;100.00
6134;BME280;3098;42.678;23.364;2022-07-06T01:41:42;94838.41;;;18.96;100.00
6134;BME280;3098;42.678;23.364;2022-07-06T01:44:09;94829.06;;;19.13;100.00
6134;BME280;3098;42.678;23.364;2022-07-06T01:46:36;94850.97;;;19.15;100.00
6134;BME280;3098;42.678;23.364;2022-07-06T01:49:04;94843.31;;;19.17;100.00
6134;BME280;3098;42.678;23.364;2022-07-06T01:51:31;94848.50;;;19.29;100.00
6134;BME280;3098;42.678;23.364;2022-07-06T01:54:00;94840.94;;;19.12;100.00
6134;BME280;3098;42.678;23.364;2022-07-06T01:56:28;94865.09;;;19.34;100.00
6134;BME280;3098;42.678;23.364;2022-07-06T01:58:55;94862.16;;;19.43;100.00
6134;BME280;3098;42.678;23.364;2022-07-06T02:01:23;94862.97;;;19.47;100.00
6134;BME280;3098;42.678;23.364;2022-07-06T02:03:50;94855.72;;;19.25;100.00
6134;BME280;3098;42.678;23.364;2022-07-06T02:06:17;94873.09;;;19.31;100.00
6134;BME280;3098;42.678;23.364;2022-07-06T02:08:44;94848.69;;;19.17;100.00
6134;BME280;3098;42.678;23.364;2022-07-06T02:11:11;94870.19;;;19.17;100.00
6134;BME280;3098;42.678;23.364;2022-07-06T02:13:40;94872.09;;;19.16;100.00
6134;BME280;3098;42.678;23.364;2022-07-06T02:16:07;94875.84;;;19.08;100.00
6134;BME280;3098;42.678;23.364;2022-07-06T02:18:34;94868.41;;;18.98;100.00
6134;BME280;3098;42.678;23.364;2022-07-06T02:21:02;94871.13;;;19.02;100.00
6134;BME280;3098;42.678;23.364;2022-07-06T02:23:29;94846.31;;;18.85;100.00
6134;BME280;3098;42.678;23.364;2022-07-06T02:25:57;94853.13;;;18.79;100.00
6134;BME280;3098;42.678;23.364;2022-07-06T02:28:24;94867.22;;;18.96;100.00
6134;BME280;3098;42.678;23.364;2022-07-06T02:30:52;94825.91;;;18.81;100.00
6134;BME280;3098;42.678;23.364;2022-07-06T02:33:20;94834.78;;;18.85;100.00
6134;BME280;3098;42.678;23.364;2022-07-06T02:35:47;94850.41;;;18.76;100.00
6134;BME280;3098;42.678;23.364;2022-07-06T02:38:14;94859.19;;;18.99;100.00
6134;BME280;3098;42.678;23.364;2022-07-06T02:40:41;94866.22;;;18.81;100.00
6134;BME280;3098;42.678;23.364;2022-07-06T02:43:09;94805.72;;;18.45;100.00
6134;BME280;3098;42.678;23.364;2022-07-06T02:45:35;94869.97;;;18.76;100.00
6134;BME280;3098;42.678;23.364;2022-07-06T02:48:04;94844.81;;;18.88;100.00
6134;BME280;3098;42.678;23.364;2022-07-06T02:50:31;94871.19;;;19.05;100.00
6134;BME280;3098;42.678;23.364;2022-07-06T02:52:59;94852.63;;;18.97;100.00
6134;BME280;3098;42.678;23.364;2022-07-06T02:55:27;94853.97;;;19.10;100.00
6134;BME280;3098;42.678;23.364;2022-07-06T02:57:54;94848.38;;;19.22;100.00
6134;BME280;3098;42.678;23.364;2022-07-06T03:00:21;94870.09;;;19.36;100.00
6134;BME280;3098;42.678;23.364;2022-07-06T03:02:48;94825.44;;;18.75;100.00
6134;BME280;3098;42.678;23.364;2022-07-06T03:05:16;94868.50;;;19.05;100.00
6134;BME280;3098;42.678;23.364;2022-07-06T03:07:44;94863.59;;;19.11;100.00
6134;BME280;3098;42.678;23.364;2022-07-06T03:10:11;94862.31;;;19.01;100.00
6134;BME280;3098;42.678;23.364;2022-07-06T03:12:38;94867.97;;;19.22;100.00
6134;BME280;3098;42.678;23.364;2022-07-06T03:15:06;94832.41;;;19.06;100.00
6134;BME280;3098;42.678;23.364;2022-07-06T03:17:35;94870.69;;;19.48;100.00
6134;BME280;3098;42.678;23.364;2022-07-06T03:20:02;94867.03;;;19.37;100.00
6134;BME280;3098;42.678;23.364;2022-07-06T03:22:31;94868.84;;;19.30;100.00
6134;BME280;3098;42.678;23.364;2022-07-06T03:24:58;94869.69;;;19.34;100.00
6134;BME280;3098;42.678;23.364;2022-07-06T03:27:25;94881.63;;;19.36;100.00
6134;BME280;3098;42.678;23.364;2022-07-06T03:29:52;94887.66;;;19.30;100.00
6134;BME280;3098;42.678;23.364;2022-07-06T03:32:19;94878.59;;;19.12;100.00
6134;BME280;3098;42.678;23.364;2022-07-06T03:34:46;94886.66;;;19.38;100.00
6134;BME280;3098;42.678;23.364;2022-07-06T03:37:19;94891.50;;;19.29;100.00
6134;BME280;3098;42.678;23.364;2022-07-06T03:39:53;94890.47;;;19.11;100.00
6134;BME280;3098;42.678;23.364;2022-07-06T03:42:21;94876.41;;;18.94;100.00
6134;BME280;3098;42.678;23.364;2022-07-06T03:44:48;94893.59;;;19.13;100.00
6134;BME280;3098;42.678;23.364;2022-07-06T03:47:15;94879.16;;;18.98;100.00
6134;BME280;3098;42.678;23.364;2022-07-06T03:49:43;94894.34;;;19.13;100.00
6134;BME280;3098;42.678;23.364;2022-07-06T03:52:09;94877.28;;;19.02;100.00
6134;BME280;3098;42.678;23.364;2022-07-06T03:54:37;94898.34;;;19.23;100.00
6134;BME280;3098;42.678;23.364;2022-07-06T03:57:05;94878.38;;;19.24;100.00
6134;BME280;3098;42.678;23.364;2022-07-06T03:59:32;94900.03;;;19.34;100.00
6134;BME280;3098;42.678;23.364;2022-07-06T04:02:00;94900.28;;;19.48;100.00
6134;BME280;3098;42.678;23.364;2022-07-06T04:04:28;94839.31;;;19.04;100.00
6134;BME280;3098;42.678;23.364;2022-07-06T04:06:56;94899.69;;;19.62;100.00
6134;BME280;3098;42.678;23.364;2022-07-06T04:09:24;94900.78;;;19.87;100.00
6134;BME280;3098;42.678;23.364;2022-07-06T04:11:51;94895.63;;;20.82;100.00
6134;BME280;3098;42.678;23.364;2022-07-06T04:14:20;94913.50;;;21.52;100.00
6134;BME280;3098;42.678;23.364;2022-07-06T04:16:47;94906.13;;;22.14;100.00
6134;BME280;3098;42.678;23.364;2022-07-06T04:19:15;94908.22;;;22.73;100.00
6134;BME280;3098;42.678;23.364;2022-07-06T04:21:42;94912.13;;;22.97;100.00
6134;BME280;3098;42.678;23.364;2022-07-06T04:24:09;94895.91;;;23.15;100.00
6134;BME280;3098;42.678;23.364;2022-07-06T04:26:36;94915.97;;;23.56;95.26
6134;BME280;3098;42.678;23.364;2022-07-06T04:29:03;94900.69;;;24.22;91.41
6134;BME280;3098;42.678;23.364;2022-07-06T04:31:32;94923.59;;;24.90;89.30
6134;BME280;3098;42.678;23.364;2022-07-06T04:33:59;94897.13;;;24.39;85.63
6134;BME280;3098;42.678;23.364;2022-07-06T04:36:26;94928.09;;;24.42;87.02
6134;BME280;3098;42.678;23.364;2022-07-06T04:38:53;94925.81;;;24.40;86.96
6134;BME280;3098;42.678;23.364;2022-07-06T04:41:21;94851.81;;;23.46;89.55
6134;BME280;3098;42.678;23.364;2022-07-06T04:43:50;94934.38;;;24.21;88.91
6134;BME280;3098;42.678;23.364;2022-07-06T04:46:17;94927.59;;;24.61;85.62
6134;BME280;3098;42.678;23.364;2022-07-06T04:48:46;94929.03;;;23.96;88.14
6134;BME280;3098;42.678;23.364;2022-07-06T04:51:15;94954.59;;;23.92;88.92
6134;BME280;3098;42.678;23.364;2022-07-06T04:53:42;94923.22;;;24.12;87.03
6134;BME280;3098;42.678;23.364;2022-07-06T04:56:11;94947.66;;;23.84;87.74
6134;BME280;3098;42.678;23.364;2022-07-06T04:58:39;94899.75;;;23.28;90.96
6134;BME280;3098;42.678;23.364;2022-07-06T05:01:06;94960.75;;;24.03;90.70
6134;BME280;3098;42.678;23.364;2022-07-06T05:03:34;94936.00;;;24.91;85.09
6134;BME280;3098;42.678;23.364;2022-07-06T05:06:07;94910.38;;;24.92;82.41
6134;BME280;3098;42.678;23.364;2022-07-06T05:08:34;94970.81;;;24.06;87.35
6134;BME280;3098;42.678;23.364;2022-07-06T05:11:01;94963.56;;;23.61;90.57
6134;BME280;3098;42.678;23.364;2022-07-06T05:13:29;94957.72;;;23.30;93.54
6134;BME280;3098;42.678;23.364;2022-07-06T05:15:56;94973.47;;;22.65;95.92
6134;BME280;3098;42.678;23.364;2022-07-06T05:18:23;94929.44;;;21.67;100.00
6134;BME280;3098;42.678;23.364;2022-07-06T05:20:51;94957.94;;;21.65;100.00
6134;BME280;3098;42.678;23.364;2022-07-06T05:23:20;94903.88;;;21.51;100.00
6134;BME280;3098;42.678;23.364;2022-07-06T05:25:47;94991.00;;;22.02;100.00
6134;BME280;3098;42.678;23.364;2022-07-06T05:28:15;94976.78;;;22.23;100.00
6134;BME280;3098;42.678;23.364;2022-07-06T05:30:43;94983.25;;;23.33;96.95
6134;BME280;3098;42.678;23.364;2022-07-06T05:33:10;94931.31;;;24.01;89.68
6134;BME280;3098;42.678;23.364;2022-07-06T05:35:37;94992.88;;;25.60;83.52
6134;BME280;3098;42.678;23.364;2022-07-06T05:38:05;94901.38;;;25.54;79.13
6134;BME280;3098;42.678;23.364;2022-07-06T05:40:34;94967.78;;;25.42;80.27
6134;BME280;3098;42.678;23.364;2022-07-06T05:43:01;94967.38;;;25.44;79.91
6134;BME280;3098;42.678;23.364;2022-07-06T05:45:29;94985.22;;;24.90;81.38
6134;BME280;3098;42.678;23.364;2022-07-06T05:47:56;94969.19;;;24.33;85.76
6134;BME280;3098;42.678;23.364;2022-07-06T05:50:49;94943.44;;;23.23;88.01
6134;BME280;3098;42.678;23.364;2022-07-06T05:53:17;95000.66;;;23.85;89.47
6134;BME280;3098;42.678;23.364;2022-07-06T05:55:46;94996.78;;;23.33;90.53
6134;BME280;3098;42.678;23.364;2022-07-06T05:58:16;94922.53;;;22.67;93.22
6134;BME280;3098;42.678;23.364;2022-07-06T06:00:44;94981.22;;;22.66;92.44
6134;BME280;3098;42.678;23.364;2022-07-06T06:03:12;94939.66;;;22.02;95.54
6134;BME280;3098;42.678;23.364;2022-07-06T06:05:39;94985.00;;;22.44;95.04
6134;BME280;3098;42.678;23.364;2022-07-06T06:08:09;94939.47;;;21.74;95.21
6134;BME280;3098;42.678;23.364;2022-07-06T06:10:37;95009.34;;;21.79;98.22
6134;BME280;3098;42.678;23.364;2022-07-06T06:13:06;94983.25;;;21.46;97.57
6134;BME280;3098;42.678;23.364;2022-07-06T06:15:34;95005.91;;;21.35;100.00
6134;BME280;3098;42.678;23.364;2022-07-06T06:18:01;94955.28;;;21.17;100.00
6134;BME280;3098;42.678;23.364;2022-07-06T06:20:29;95002.34;;;21.74;99.63
6134;BME280;3098;42.678;23.364;2022-07-06T06:22:57;95011.09;;;21.54;99.73
6134;BME280;3098;42.678;23.364;2022-07-06T06:25:28;94994.16;;;21.57;99.63
6134;BME280;3098;42.678;23.364;2022-07-06T06:27:56;94998.06;;;21.70;99.65
6134;BME280;3098;42.678;23.364;2022-07-06T06:30:25;95003.28;;;21.96;98.97
6134;BME280;3098;42.678;23.364;2022-07-06T06:33:07;94944.88;;;21.70;99.21
6134;BME280;3098;42.678;23.364;2022-07-06T06:35:34;94989.13;;;22.13;98.16
6134;BME280;3098;42.678;23.364;2022-07-06T06:38:02;94786.13;;;20.63;97.89
6134;BME280;3098;42.678;23.364;2022-07-06T06:40:29;94982.13;;;22.09;97.91
6134;BME280;3098;42.678;23.364;2022-07-06T06:42:56;94953.31;;;21.69;97.52
6134;BME280;3098;42.678;23.364;2022-07-06T06:45:26;94989.53;;;22.26;96.39
6134;BME280;3098;42.678;23.364;2022-07-06T06:47:54;94982.91;;;22.09;95.31
6134;BME280;3098;42.678;23.364;2022-07-06T06:50:21;94990.00;;;22.39;95.41
6134;BME280;3098;42.678;23.364;2022-07-06T06:52:50;94988.09;;;22.46;93.49
6134;BME280;3098;42.678;23.364;2022-07-06T06:55:17;94993.53;;;24.44;86.47
6134;BME280;3098;42.678;23.364;2022-07-06T06:57:45;94896.03;;;25.81;76.35
6134;BME280;3098;42.678;23.364;2022-07-06T07:00:13;94996.25;;;26.12;75.31
6134;BME280;3098;42.678;23.364;2022-07-06T07:02:43;94962.53;;;25.17;76.40
6134;BME280;3098;42.678;23.364;2022-07-06T07:05:12;94978.56;;;25.01;78.13
6134;BME280;3098;42.678;23.364;2022-07-06T07:07:39;94968.41;;;24.36;81.01
6134;BME280;3098;42.678;23.364;2022-07-06T07:10:07;94990.94;;;24.09;84.23
6134;BME280;3098;42.678;23.364;2022-07-06T07:12:34;94986.28;;;24.20;84.29
6134;BME280;3098;42.678;23.364;2022-07-06T07:15:02;94995.59;;;23.97;86.24
6134;BME280;3098;42.678;23.364;2022-07-06T07:17:30;94968.22;;;23.46;84.85
6134;BME280;3098;42.678;23.364;2022-07-06T07:19:59;94996.81;;;23.58;87.00
6134;BME280;3098;42.678;23.364;2022-07-06T07:22:26;94990.94;;;24.05;85.02
6134;BME280;3098;42.678;23.364;2022-07-06T07:24:53;94978.19;;;23.84;85.42
6134;BME280;3098;42.678;23.364;2022-07-06T07:27:20;94897.00;;;23.63;84.18
6134;BME280;3098;42.678;23.364;2022-07-06T07:29:47;94985.09;;;24.28;84.03
6134;BME280;3098;42.678;23.364;2022-07-06T07:32:14;94986.75;;;24.94;81.16
6134;BME280;3098;42.678;23.364;2022-07-06T07:34:42;94932.59;;;24.70;80.30
6134;BME280;3098;42.678;23.364;2022-07-06T07:37:11;94979.72;;;25.00;79.60
6134;BME280;3098;42.678;23.364;2022-07-06T07:39:38;94904.22;;;24.05;80.83
6134;BME280;3098;42.678;23.364;2022-07-06T07:42:06;94979.63;;;24.42;82.24
6134;BME280;3098;42.678;23.364;2022-07-06T07:44:34;94986.59;;;24.39;82.15
6134;BME280;3098;42.678;23.364;2022-07-06T07:47:01;94978.53;;;25.05;79.19
6134;BME280;3098;42.678;23.364;2022-07-06T07:49:29;94981.19;;;25.67;77.42
6134;BME280;3098;42.678;23.364;2022-07-06T07:51:56;94922.69;;;26.30;73.37
6134;BME280;3098;42.678;23.364;2022-07-06T07:54:26;94923.91;;;27.59;66.32
6134;BME280;3098;42.678;23.364;2022-07-06T07:56:53;94976.59;;;28.38;63.17
6134;BME280;3098;42.678;23.364;2022-07-06T07:59:21;94974.84;;;27.85;65.32
6134;BME280;3098;42.678;23.364;2022-07-06T08:01:48;94923.56;;;26.20;69.22
6134;BME280;3098;42.678;23.364;2022-07-06T08:04:16;94958.22;;;25.71;73.14
6134;BME280;3098;42.678;23.364;2022-07-06T08:06:44;94868.25;;;25.66;71.83
6134;BME280;3098;42.678;23.364;2022-07-06T08:09:12;94987.47;;;27.53;66.97
6134;BME280;3098;42.678;23.364;2022-07-06T08:11:41;94971.78;;;29.53;58.83
6134;BME280;3098;42.678;23.364;2022-07-06T08:14:08;94969.03;;;30.02;55.59
6134;BME280;3098;42.678;23.364;2022-07-06T08:16:36;94972.84;;;29.07;58.35
6134;BME280;3098;42.678;23.364;2022-07-06T08:19:04;94977.81;;;27.94;61.77
6134;BME280;3098;42.678;23.364;2022-07-06T08:21:31;94978.13;;;27.00;66.42
6134;BME280;3098;42.678;23.364;2022-07-06T08:23:59;94979.44;;;26.89;67.93
6134;BME280;3098;42.678;23.364;2022-07-06T08:26:27;94977.28;;;27.57;65.02
6134;BME280;3098;42.678;23.364;2022-07-06T08:28:56;94974.97;;;27.55;64.62
6134;BME280;3098;42.678;23.364;2022-07-06T08:31:23;94779.75;;;26.56;64.73
6134;BME280;3098;42.678;23.364;2022-07-06T08:33:50;94972.56;;;29.02;60.64
6134;BME280;3098;42.678;23.364;2022-07-06T08:36:19;94932.06;;;29.65;55.63
6134;BME280;3098;42.678;23.364;2022-07-06T08:38:46;94942.94;;;30.42;54.62
6134;BME280;3098;42.678;23.364;2022-07-06T08:41:15;94932.09;;;30.39;51.66
6134;BME280;3098;42.678;23.364;2022-07-06T08:43:44;94979.41;;;31.56;49.73
6134;BME280;3098;42.678;23.364;2022-07-06T08:46:14;94967.25;;;31.32;48.64
6134;BME280;3098;42.678;23.364;2022-07-06T08:48:42;94903.69;;;30.33;50.72
6134;BME280;3098;42.678;23.364;2022-07-06T08:51:11;94972.91;;;29.40;54.02
6134;BME280;3098;42.678;23.364;2022-07-06T08:53:41;94938.75;;;29.32;56.33
6134;BME280;3098;42.678;23.364;2022-07-06T08:56:09;94912.41;;;28.34;58.76
6134;BME280;3098;42.678;23.364;2022-07-06T08:58:37;94936.34;;;28.07;58.28
6134;BME280;3098;42.678;23.364;2022-07-06T09:01:09;94969.88;;;28.04;60.59
6134;BME280;3098;42.678;23.364;2022-07-06T09:03:39;94907.19;;;27.34;60.73
6134;BME280;3098;42.678;23.364;2022-07-06T09:06:09;94958.75;;;27.21;64.05
6134;BME280;3098;42.678;23.364;2022-07-06T09:08:37;94960.69;;;27.71;60.41
6134;BME280;3098;42.678;23.364;2022-07-06T09:11:05;94960.22;;;27.76;59.19
6134;BME280;3098;42.678;23.364;2022-07-06T09:13:32;94969.41;;;27.85;58.63
6134;BME280;3098;42.678;23.364;2022-07-06T09:16:09;94831.56;;;26.72;61.50
6134;BME280;3098;42.678;23.364;2022-07-06T09:18:39;94859.28;;;26.63;63.48
6134;BME280;3098;42.678;23.364;2022-07-06T09:21:08;94971.09;;;26.72;65.41
6134;BME280;3098;42.678;23.364;2022-07-06T09:23:36;94898.59;;;26.28;65.56
6134;BME280;3098;42.678;23.364;2022-07-06T09:26:03;94974.19;;;26.07;69.27
6134;BME280;3098;42.678;23.364;2022-07-06T09:28:42;94910.69;;;25.05;72.70
6134;BME280;3098;42.678;23.364;2022-07-06T09:31:09;94924.81;;;24.75;74.92
6134;BME280;3098;42.678;23.364;2022-07-06T09:33:37;94774.25;;;23.87;75.20
6134;BME280;3098;42.678;23.364;2022-07-06T09:36:06;94969.34;;;24.88;75.71
6134;BME280;3098;42.678;23.364;2022-07-06T09:38:34;94966.59;;;24.92;75.02
6134;BME280;3098;42.678;23.364;2022-07-06T09:41:01;94964.34;;;24.80;77.80
6134;BME280;3098;42.678;23.364;2022-07-06T09:43:29;94932.88;;;24.93;74.95
6134;BME280;3098;42.678;23.364;2022-07-06T09:45:59;94935.09;;;25.08;75.65
6134;BME280;3098;42.678;23.364;2022-07-06T09:48:27;94931.72;;;25.42;73.73
6134;BME280;3098;42.678;23.364;2022-07-06T09:50:55;94945.56;;;25.95;71.56
6134;BME280;3098;42.678;23.364;2022-07-06T09:53:26;94945.78;;;26.45;69.14
6134;BME280;3098;42.678;23.364;2022-07-06T09:55:54;94941.59;;;27.24;63.74
6134;BME280;3098;42.678;23.364;2022-07-06T09:58:24;94942.53;;;27.14;64.69
6134;BME280;3098;42.678;23.364;2022-07-06T10:00:52;94935.44;;;27.20;64.90
6134;BME280;3098;42.678;23.364;2022-07-06T10:03:19;94903.66;;;26.87;64.13
6134;BME280;3098;42.678;23.364;2022-07-06T10:05:47;94867.41;;;26.67;63.79
6134;BME280;3098;42.678;23.364;2022-07-06T10:08:16;94916.88;;;26.58;65.65
6134;BME280;3098;42.678;23.364;2022-07-06T10:10:45;94898.28;;;26.83;64.29
6134;BME280;3098;42.678;23.364;2022-07-06T10:13:14;94908.13;;;27.01;65.32
6134;BME280;3098;42.678;23.364;2022-07-06T10:15:49;94922.00;;;27.99;62.00
6134;BME280;3098;42.678;23.364;2022-07-06T10:18:17;94921.50;;;28.27;59.23
6134;BME280;3098;42.678;23.364;2022-07-06T10:20:44;94951.28;;;28.58;58.17
6134;BME280;3098;42.678;23.364;2022-07-06T10:23:14;94863.94;;;28.22;58.04
6134;BME280;3098;42.678;23.364;2022-07-06T10:25:42;94929.03;;;28.95;56.23
6134;BME280;3098;42.678;23.364;2022-07-06T10:28:13;94919.72;;;28.57;56.86
6134;BME280;3098;42.678;23.364;2022-07-06T10:30:41;94906.72;;;28.25;56.36
6134;BME280;3098;42.678;23.364;2022-07-06T10:33:10;94929.41;;;27.98;59.87
6134;BME280;3098;42.678;23.364;2022-07-06T10:35:43;94925.53;;;28.39;58.72
6134;BME280;3098;42.678;23.364;2022-07-06T10:38:14;94937.50;;;27.13;62.89
6134;BME280;3098;42.678;23.364;2022-07-06T10:40:43;94769.34;;;26.51;60.66
6134;BME280;3098;42.678;23.364;2022-07-06T10:43:45;94934.44;;;28.43;56.89
6134;BME280;3098;42.678;23.364;2022-07-06T10:46:16;94928.09;;;29.01;56.47
6134;BME280;3098;42.678;23.364;2022-07-06T10:48:45;94803.94;;;28.22;57.23
6134;BME280;3098;42.678;23.364;2022-07-06T10:51:22;94925.69;;;29.03;54.61
6134;BME280;3098;42.678;23.364;2022-07-06T10:53:56;94875.97;;;28.60;54.18
6134;BME280;3098;42.678;23.364;2022-07-06T10:56:32;94888.09;;;29.11;53.39
6134;BME280;3098;42.678;23.364;2022-07-06T10:59:08;94866.84;;;29.02;52.06
6134;BME280;3098;42.678;23.364;2022-07-06T11:01:38;94888.31;;;29.81;50.60
6134;BME280;3098;42.678;23.364;2022-07-06T11:04:07;94882.84;;;30.10;50.14
6134;BME280;3098;42.678;23.364;2022-07-06T11:06:38;94920.91;;;28.56;54.13
6134;BME280;3098;42.678;23.364;2022-07-06T11:09:07;94903.94;;;28.09;57.64
6134;BME280;3098;42.678;23.364;2022-07-06T11:11:40;94921.22;;;27.09;59.91
6134;BME280;3098;42.678;23.364;2022-07-06T11:14:11;94898.66;;;26.25;64.04
6134;BME280;3098;42.678;23.364;2022-07-06T11:16:58;94915.81;;;27.56;60.59
6134;BME280;3098;42.678;23.364;2022-07-06T11:19:28;94848.28;;;27.67;57.96
6134;BME280;3098;42.678;23.364;2022-07-06T11:21:56;94862.53;;;27.94;56.12
6134;BME280;3098;42.678;23.364;2022-07-06T11:24:26;94815.28;;;27.42;57.09
6134;BME280;3098;42.678;23.364;2022-07-06T11:26:55;94920.44;;;27.09;60.40
6134;BME280;3098;42.678;23.364;2022-07-06T11:29:26;94912.25;;;27.35;61.18
6134;BME280;3098;42.678;23.364;2022-07-06T11:31:56;94808.88;;;25.68;64.25
6134;BME280;3098;42.678;23.364;2022-07-06T11:34:26;94861.47;;;25.85;63.63
6134;BME280;3098;42.678;23.364;2022-07-06T11:36:55;94881.13;;;25.96;64.99
6134;BME280;3098;42.678;23.364;2022-07-06T11:39:26;94825.97;;;25.28;66.57
6134;BME280;3098;42.678;23.364;2022-07-06T11:41:54;94853.50;;;25.26;67.10
6134;BME280;3098;42.678;23.364;2022-07-06T11:44:22;94829.13;;;25.23;65.56
6134;BME280;3098;42.678;23.364;2022-07-06T11:46:51;94885.97;;;25.78;65.72
6134;BME280;3098;42.678;23.364;2022-07-06T11:49:18;94817.66;;;25.79;64.26
6134;BME280;3098;42.678;23.364;2022-07-06T11:51:47;94855.63;;;26.47;61.98
6134;BME280;3098;42.678;23.364;2022-07-06T11:54:16;94761.13;;;25.70;62.01
6134;BME280;3098;42.678;23.364;2022-07-06T11:56:48;94888.81;;;26.35;62.62
6134;BME280;3098;42.678;23.364;2022-07-06T11:59:21;94882.59;;;26.04;62.24
6134;BME280;3098;42.678;23.364;2022-07-06T12:01:58;94817.34;;;25.74;65.24
6134;BME280;3098;42.678;23.364;2022-07-06T12:04:26;94882.88;;;26.13;63.89
6134;BME280;3098;42.678;23.364;2022-07-06T12:06:54;94868.03;;;25.87;63.82
6134;BME280;3098;42.678;23.364;2022-07-06T12:09:21;94783.25;;;25.32;63.28
6134;BME280;3098;42.678;23.364;2022-07-06T12:11:49;94844.47;;;25.40;65.31
6134;BME280;3098;42.678;23.364;2022-07-06T12:14:19;94877.41;;;25.42;66.46
6134;BME280;3098;42.678;23.364;2022-07-06T12:16:48;94846.72;;;25.48;65.83
6134;BME280;3098;42.678;23.364;2022-07-06T12:19:17;94851.47;;;25.75;65.94
6134;BME280;3098;42.678;23.364;2022-07-06T12:21:45;94819.25;;;25.77;64.18
6134;BME280;3098;42.678;23.364;2022-07-06T12:24:18;94884.22;;;25.94;64.03
6134;BME280;3098;42.678;23.364;2022-07-06T12:26:47;94838.69;;;25.34;65.39
6134;BME280;3098;42.678;23.364;2022-07-06T12:29:15;94876.31;;;25.77;65.80
6134;BME280;3098;42.678;23.364;2022-07-06T12:31:47;94878.53;;;25.44;66.83
6134;BME280;3098;42.678;23.364;2022-07-06T12:34:19;94841.34;;;25.38;65.61
6134;BME280;3098;42.678;23.364;2022-07-06T12:36:48;94870.38;;;25.85;65.31
6134;BME280;3098;42.678;23.364;2022-07-06T12:39:19;94850.16;;;25.86;63.23
6134;BME280;3098;42.678;23.364;2022-07-06T12:41:48;94820.41;;;25.76;62.99
6134;BME280;3098;42.678;23.364;2022-07-06T12:44:17;94863.84;;;26.13;63.27
6134;BME280;3098;42.678;23.364;2022-07-06T12:46:46;94839.19;;;25.97;62.71
6134;BME280;3098;42.678;23.364;2022-07-06T12:49:17;94864.84;;;25.92;64.33
6134;BME280;3098;42.678;23.364;2022-07-06T12:51:52;94857.88;;;26.25;62.98
6134;BME280;3098;42.678;23.364;2022-07-06T12:54:22;94832.09;;;26.03;62.93
6134;BME280;3098;42.678;23.364;2022-07-06T12:57:06;94845.44;;;25.94;63.56
6134;BME280;3098;42.678;23.364;2022-07-06T12:59:36;94862.56;;;26.24;62.66
6134;BME280;3098;42.678;23.364;2022-07-06T13:02:04;94859.72;;;26.32;62.06
6134;BME280;3098;42.678;23.364;2022-07-06T13:04:36;94826.91;;;26.19;61.09
6134;BME280;3098;42.678;23.364;2022-07-06T13:07:04;94854.66;;;26.34;62.49
6134;BME280;3098;42.678;23.364;2022-07-06T13:09:32;94675.69;;;25.11;60.92
6134;BME280;3098;42.678;23.364;2022-07-06T13:12:00;94771.69;;;25.92;61.57
6134;BME280;3098;42.678;23.364;2022-07-06T13:14:27;94761.88;;;26.01;61.37